createdAt,value
2017-09-14T00:01:13.803Z,97.80
2017-09-14T00:03:41.671Z,97.60
2017-09-14T00:06:09.847Z,97.60
2017-09-14T00:08:37.712Z,97.50
2017-09-14T00:11:05.578Z,97.60
2017-09-14T00:13:33.447Z,97.50
2017-09-14T00:16:01.313Z,97.70
2017-09-14T00:18:29.181Z,97.70
2017-09-14T00:20:57.048Z,97.60
2017-09-14T00:23:24.920Z,97.70
2017-09-14T00:28:26.630Z,97.60
2017-09-14T00:30:55.281Z,97.60
2017-09-14T00:33:23.148Z,97.60
2017-09-14T00:35:51.014Z,97.60
2017-09-14T00:38:18.880Z,97.50
2017-09-14T00:40:46.850Z,97.50
2017-09-14T00:43:14.716Z,97.50
2017-09-14T00:45:42.584Z,97.40
2017-09-14T00:48:10.449Z,97.20
2017-09-14T00:50:38.317Z,97.20
2017-09-14T00:53:06.184Z,97.30
2017-09-14T00:55:34.051Z,97.40
2017-09-14T00:58:01.918Z,97.30
2017-09-14T01:00:29.787Z,97.40
2017-09-14T01:02:57.653Z,97.60
2017-09-14T01:05:25.520Z,97.60
2017-09-14T01:07:53.387Z,97.70
2017-09-14T01:10:21.255Z,97.70
2017-09-14T01:12:49.123Z,97.70
2017-09-14T01:15:34.602Z,97.60
2017-09-14T01:18:02.470Z,97.80
2017-09-14T01:20:30.439Z,97.50
2017-09-14T01:22:58.411Z,97.50
2017-09-14T01:25:26.380Z,97.50
2017-09-14T01:27:54.348Z,97.70
2017-09-14T01:30:22.224Z,97.60
2017-09-14T01:32:50.085Z,97.50
2017-09-14T01:35:17.952Z,97.40
2017-09-14T01:37:45.921Z,97.40
2017-09-14T01:40:13.788Z,97.50
2017-09-14T01:42:41.656Z,97.60
2017-09-14T01:45:09.523Z,97.80
2017-09-14T01:47:37.314Z,97.90
2017-09-14T01:50:05.154Z,98.00
2017-09-14T01:52:33.022Z,98.00
2017-09-14T01:55:00.888Z,97.90
2017-09-14T01:57:28.756Z,98.20
2017-09-14T01:59:56.645Z,98.10
2017-09-14T02:02:24.490Z,97.90
2017-09-14T02:04:52.358Z,97.80
2017-09-14T02:07:20.100Z,97.70
2017-09-14T02:09:47.992Z,97.80
2017-09-14T02:12:15.869Z,97.70
2017-09-14T02:14:43.725Z,97.80
2017-09-14T02:17:11.592Z,97.70
2017-09-14T02:19:39.459Z,97.60
2017-09-14T02:22:07.326Z,97.40
2017-09-14T02:24:35.195Z,97.20
2017-09-14T02:27:03.061Z,96.90
2017-09-14T02:29:30.929Z,97.10
2017-09-14T02:31:58.797Z,97.30
2017-09-14T02:34:26.664Z,97.30
2017-09-14T02:36:54.531Z,97.30
2017-09-14T02:39:22.399Z,97.30
2017-09-14T02:41:50.266Z,97.40
2017-09-14T02:44:18.133Z,97.40
2017-09-14T02:46:46.000Z,97.40
2017-09-14T02:49:13.866Z,97.40
2017-09-14T02:51:41.733Z,97.40
2017-09-14T02:54:09.465Z,97.40
2017-09-14T02:56:37.263Z,97.40
2017-09-14T02:59:05.132Z,97.00
2017-09-14T03:01:32.998Z,97.10
2017-09-14T03:04:00.866Z,97.00
2017-09-14T03:06:28.733Z,97.00
2017-09-14T03:08:56.631Z,96.90
2017-09-14T03:11:24.467Z,96.80
2017-09-14T03:13:52.337Z,96.70
2017-09-14T03:16:20.202Z,96.10
2017-09-14T03:18:48.070Z,96.10
2017-09-14T03:21:15.938Z,96.50
2017-09-14T03:23:43.806Z,96.50
2017-09-14T03:26:11.672Z,96.40
2017-09-14T03:28:39.548Z,96.00
2017-09-14T03:31:08.231Z,95.70
2017-09-14T03:33:36.099Z,95.70
2017-09-14T03:36:03.961Z,95.60
2017-09-14T03:38:31.832Z,95.50
2017-09-14T03:40:59.698Z,95.90
2017-09-14T03:43:27.669Z,95.60
2017-09-14T03:45:55.536Z,95.70
2017-09-14T03:48:23.401Z,95.30
2017-09-14T03:50:51.268Z,95.60
2017-09-14T03:53:19.134Z,95.40
2017-09-14T03:55:47.001Z,95.20
2017-09-14T03:58:14.881Z,95.20
2017-09-14T04:00:42.736Z,94.90
2017-09-14T04:03:10.602Z,95.00
2017-09-14T04:05:38.470Z,94.90
2017-09-14T04:08:06.337Z,95.00
2017-09-14T04:10:34.204Z,95.30
2017-09-14T04:13:02.096Z,95.80
2017-09-14T04:15:30.041Z,95.30
2017-09-14T04:17:57.909Z,95.50
2017-09-14T04:20:25.776Z,95.70
2017-09-14T04:22:53.647Z,96.10
2017-09-14T04:25:21.511Z,96.30
2017-09-14T04:27:49.382Z,96.40
2017-09-14T04:30:17.245Z,96.50
2017-09-14T04:32:45.113Z,96.60
2017-09-14T04:35:12.930Z,96.70
2017-09-14T04:37:41.563Z,97.00
2017-09-14T04:40:09.431Z,97.00
2017-09-14T04:42:37.299Z,97.00
2017-09-14T04:45:05.168Z,96.80
2017-09-14T04:47:33.033Z,97.10
2017-09-14T04:50:00.905Z,97.00
2017-09-14T04:52:28.768Z,97.20
2017-09-14T04:54:56.635Z,97.00
2017-09-14T04:57:24.502Z,96.90
2017-09-14T04:59:52.369Z,96.90
2017-09-14T05:02:20.237Z,97.00
2017-09-14T05:04:48.104Z,97.00
2017-09-14T05:07:15.971Z,96.90
2017-09-14T05:09:43.839Z,96.90
2017-09-14T05:12:11.706Z,97.00
2017-09-14T05:14:39.676Z,97.00
2017-09-14T05:17:07.543Z,97.00
2017-09-14T05:19:35.411Z,97.30
2017-09-14T05:22:03.278Z,97.10
2017-09-14T05:24:31.146Z,97.20
2017-09-14T05:26:59.012Z,97.30
2017-09-14T05:29:26.880Z,97.30
2017-09-14T05:31:54.850Z,97.30
2017-09-14T05:34:22.716Z,97.00
2017-09-14T05:36:50.584Z,97.30
2017-09-14T05:39:18.443Z,97.40
2017-09-14T05:41:46.319Z,97.30
2017-09-14T05:44:14.187Z,97.20
2017-09-14T05:46:42.054Z,97.70
2017-09-14T05:49:09.920Z,97.40
2017-09-14T05:51:37.789Z,97.40
2017-09-14T05:54:05.655Z,97.40
2017-09-14T05:56:33.523Z,97.50
2017-09-14T05:59:01.392Z,97.50
2017-09-14T06:01:29.256Z,97.30
2017-09-14T06:03:57.154Z,97.10
2017-09-14T06:06:24.992Z,97.00
2017-09-14T06:08:52.859Z,96.70
2017-09-14T06:11:20.726Z,96.70
2017-09-14T06:13:48.629Z,96.70
2017-09-14T06:16:17.279Z,96.50
2017-09-14T06:18:45.147Z,96.50
2017-09-14T06:21:13.023Z,96.60
2017-09-14T06:23:40.881Z,96.60
2017-09-14T06:26:08.749Z,96.20
2017-09-14T06:28:36.617Z,96.80
2017-09-14T06:31:04.483Z,96.80
2017-09-14T06:33:32.351Z,96.80
2017-09-14T06:36:00.218Z,96.60
2017-09-14T06:38:28.090Z,96.70
2017-09-14T06:40:55.956Z,96.50
2017-09-14T06:43:23.822Z,96.70
2017-09-14T06:45:51.693Z,96.80
2017-09-14T06:48:19.559Z,96.90
2017-09-14T06:50:47.425Z,97.00
2017-09-14T06:53:15.293Z,97.00
2017-09-14T06:55:43.178Z,96.90
2017-09-14T06:58:11.741Z,96.90
2017-09-14T07:00:39.609Z,96.90
2017-09-14T07:03:07.476Z,96.80
2017-09-14T07:05:35.344Z,97.00
2017-09-14T07:08:03.211Z,96.80
2017-09-14T07:10:31.078Z,96.70
2017-09-14T07:12:58.945Z,96.90
2017-09-14T07:15:26.813Z,97.10
2017-09-14T07:17:54.679Z,97.10
2017-09-14T07:20:22.546Z,96.90
2017-09-14T07:22:50.414Z,96.90
2017-09-14T07:25:18.282Z,96.80
2017-09-14T07:27:46.150Z,96.70
2017-09-14T07:30:14.015Z,96.90
2017-09-14T07:32:41.886Z,96.80
2017-09-14T07:35:09.751Z,96.80
2017-09-14T07:37:37.622Z,97.00
2017-09-14T07:40:05.490Z,97.00
2017-09-14T07:42:33.354Z,97.10
2017-09-14T07:45:01.221Z,97.20
2017-09-14T07:47:29.087Z,97.20
2017-09-14T07:49:56.954Z,97.10
2017-09-14T07:52:24.822Z,97.10
2017-09-14T07:54:52.688Z,97.20
2017-09-14T07:57:20.556Z,97.10
2017-09-14T07:59:48.424Z,97.00
2017-09-14T08:02:16.291Z,96.90
2017-09-14T08:04:44.158Z,96.90
2017-09-14T08:07:12.025Z,97.10
2017-09-14T08:09:39.893Z,97.30
2017-09-14T08:12:07.761Z,97.20
2017-09-14T08:14:35.628Z,97.30
2017-09-14T08:17:03.495Z,97.10
2017-09-14T08:19:31.362Z,97.00
2017-09-14T08:21:59.229Z,97.10
2017-09-14T08:24:27.023Z,96.90
2017-09-14T08:26:54.861Z,97.10
2017-09-14T08:29:22.729Z,97.30
2017-09-14T08:31:50.596Z,97.40
2017-09-14T08:34:18.463Z,97.10
2017-09-14T08:36:46.334Z,97.00
2017-09-14T08:39:14.198Z,97.10
2017-09-14T08:41:42.066Z,97.10
2017-09-14T08:44:09.933Z,96.70
2017-09-14T08:46:37.800Z,96.90
2017-09-14T08:49:05.667Z,96.70
2017-09-14T08:51:33.535Z,96.80
2017-09-14T08:54:01.402Z,96.70
2017-09-14T08:56:29.270Z,96.60
2017-09-14T08:58:57.137Z,96.80
2017-09-14T09:01:25.004Z,96.40
2017-09-14T09:03:52.871Z,96.60
2017-09-14T09:06:20.738Z,96.60
2017-09-14T09:08:48.607Z,96.60
2017-09-14T09:11:16.473Z,96.50
2017-09-14T09:13:44.340Z,96.60
2017-09-14T09:16:12.207Z,96.40
2017-09-14T09:18:40.074Z,96.70
2017-09-14T09:21:07.943Z,96.60
2017-09-14T09:23:35.809Z,96.70
2017-09-14T09:26:03.676Z,96.60
2017-09-14T09:28:31.545Z,96.40
2017-09-14T09:30:59.413Z,96.30
2017-09-14T09:33:27.280Z,96.60
2017-09-14T09:35:55.147Z,96.50
2017-09-14T09:38:23.013Z,96.40
2017-09-14T09:40:50.881Z,96.50
2017-09-14T09:43:18.747Z,95.80
2017-09-14T09:45:46.619Z,95.70
2017-09-14T09:48:14.485Z,95.60
2017-09-14T09:50:42.352Z,95.30
2017-09-14T09:53:10.221Z,95.30
2017-09-14T09:55:38.088Z,95.30
2017-09-14T09:58:05.956Z,95.60
2017-09-14T10:00:33.820Z,95.40
2017-09-14T10:03:01.687Z,95.10
2017-09-14T10:05:29.553Z,95.30
2017-09-14T10:07:57.421Z,95.40
2017-09-14T10:10:25.288Z,94.60
2017-09-14T10:12:53.158Z,94.50
2017-09-14T10:15:21.022Z,94.30
2017-09-14T10:17:48.890Z,94.10
2017-09-14T10:20:16.758Z,94.00
2017-09-14T10:22:44.625Z,93.80
2017-09-14T10:25:12.491Z,94.00
2017-09-14T10:27:40.360Z,93.60
2017-09-14T10:30:08.228Z,94.00
2017-09-14T10:32:36.094Z,94.00
2017-09-14T10:35:03.972Z,94.10
2017-09-14T10:37:32.648Z,94.10
2017-09-14T10:40:00.516Z,94.10
2017-09-14T10:42:28.383Z,94.20
2017-09-14T10:44:56.250Z,93.80
2017-09-14T10:47:24.117Z,93.50
2017-09-14T10:49:51.984Z,93.10
2017-09-14T10:52:19.778Z,93.20
2017-09-14T10:54:47.616Z,92.30
2017-09-14T10:57:15.483Z,91.90
2017-09-14T10:59:43.351Z,91.10
2017-09-14T11:02:11.218Z,91.60
2017-09-14T11:04:39.085Z,91.50
2017-09-14T11:07:06.954Z,90.50
2017-09-14T11:09:34.820Z,91.50
2017-09-14T11:12:02.688Z,92.20
2017-09-14T11:14:30.554Z,91.30
2017-09-14T11:16:58.422Z,90.70
2017-09-14T11:19:26.289Z,91.30
2017-09-14T11:21:54.157Z,91.80
2017-09-14T11:24:21.955Z,90.70
2017-09-14T11:26:50.614Z,90.90
2017-09-14T11:29:18.475Z,90.90
2017-09-14T11:31:46.342Z,90.60
2017-09-14T11:34:14.210Z,91.60
2017-09-14T11:36:42.077Z,89.40
2017-09-14T11:39:09.945Z,89.30
2017-09-14T11:41:37.812Z,89.20
2017-09-14T11:44:05.679Z,86.90
2017-09-14T11:46:33.546Z,86.20
2017-09-14T11:49:01.415Z,84.60
2017-09-14T11:51:29.281Z,83.00
2017-09-14T11:53:57.148Z,84.00
2017-09-14T11:56:25.010Z,83.10
2017-09-14T11:58:52.883Z,81.00
2017-09-14T12:01:20.749Z,81.40
2017-09-14T12:03:48.617Z,81.50
2017-09-14T12:06:16.484Z,77.50
2017-09-14T12:08:44.352Z,77.30
2017-09-14T12:11:12.218Z,79.20
2017-09-14T12:13:40.093Z,79.20
2017-09-14T12:16:07.954Z,84.10
2017-09-14T12:18:35.821Z,87.50
2017-09-14T12:21:03.689Z,89.00
2017-09-14T12:23:31.556Z,90.70
2017-09-14T12:25:59.422Z,90.70
2017-09-14T12:28:27.291Z,91.00
2017-09-14T12:30:55.159Z,89.80
2017-09-14T12:33:23.025Z,88.80
2017-09-14T12:35:50.892Z,89.90
2017-09-14T12:38:18.760Z,90.00
2017-09-14T12:40:46.626Z,90.10
2017-09-14T12:43:14.495Z,91.00
2017-09-14T12:45:42.322Z,90.80
2017-09-14T12:48:10.134Z,91.20
2017-09-14T12:50:37.999Z,90.70
2017-09-14T12:53:05.866Z,91.40
2017-09-14T12:55:33.729Z,91.60
2017-09-14T12:58:01.597Z,92.00
2017-09-14T13:00:29.465Z,92.20
2017-09-14T13:02:57.335Z,91.10
2017-09-14T13:05:25.202Z,90.80
2017-09-14T13:07:53.066Z,91.30
2017-09-14T13:10:20.934Z,91.90
2017-09-14T13:12:48.800Z,91.10
2017-09-14T13:15:16.667Z,91.40
2017-09-14T13:17:44.540Z,91.50
2017-09-14T13:20:12.402Z,90.50
2017-09-14T13:22:40.269Z,88.50
2017-09-14T13:25:08.137Z,84.50
2017-09-14T13:27:36.005Z,86.00
2017-09-14T13:30:03.871Z,86.90
2017-09-14T13:32:31.739Z,86.20
2017-09-14T13:34:59.613Z,86.40
2017-09-14T13:37:27.478Z,85.00
2017-09-14T13:39:55.340Z,84.20
2017-09-14T13:42:23.207Z,85.60
2017-09-14T13:44:51.074Z,83.70
2017-09-14T13:47:18.942Z,85.80
2017-09-14T13:49:46.831Z,87.30
2017-09-14T13:52:14.678Z,85.40
2017-09-14T13:54:42.544Z,82.80
2017-09-14T13:57:10.411Z,81.10
2017-09-14T13:59:38.286Z,79.40
2017-09-14T14:02:06.146Z,78.00
2017-09-14T14:04:34.013Z,81.60
2017-09-14T14:07:01.880Z,82.50
2017-09-14T14:09:29.748Z,83.90
2017-09-14T14:11:57.616Z,81.70
2017-09-14T14:14:25.484Z,82.00
2017-09-14T14:16:53.350Z,83.50
2017-09-14T14:19:21.217Z,82.20
2017-09-14T14:21:49.091Z,83.50
2017-09-14T14:24:16.953Z,78.80
2017-09-14T14:26:44.819Z,78.80
2017-09-14T14:29:12.685Z,80.10
2017-09-14T14:31:40.555Z,78.60
2017-09-14T14:34:08.421Z,77.00
2017-09-14T14:36:36.288Z,77.60
2017-09-14T14:39:04.155Z,76.40
2017-09-14T14:41:32.023Z,75.00
2017-09-14T14:43:59.889Z,74.30
2017-09-14T14:46:27.757Z,75.80
2017-09-14T14:48:55.554Z,76.10
2017-09-14T14:51:24.058Z,77.10
2017-09-14T14:53:51.973Z,77.00
2017-09-14T14:56:19.840Z,77.70
2017-09-14T14:58:47.708Z,78.00
2017-09-14T15:01:15.576Z,80.20
2017-09-14T15:03:43.442Z,77.40
2017-09-14T15:06:11.310Z,80.30
2017-09-14T15:08:39.179Z,78.60
2017-09-14T15:11:07.044Z,77.50
2017-09-14T15:13:34.912Z,77.10
2017-09-14T15:16:02.779Z,78.20
2017-09-14T15:18:30.648Z,76.50
2017-09-14T15:20:58.514Z,77.20
2017-09-14T15:23:26.381Z,74.10
2017-09-14T15:25:54.249Z,77.20
2017-09-14T15:28:22.115Z,76.40
2017-09-14T15:30:50.085Z,77.40
2017-09-14T15:33:17.952Z,75.90
2017-09-14T15:35:45.820Z,72.60
2017-09-14T15:38:13.687Z,73.00
2017-09-14T15:41:00.294Z,75.20
2017-09-14T15:43:33.805Z,75.70
2017-09-14T15:46:01.661Z,76.40
2017-09-14T15:48:35.263Z,73.80
2017-09-14T15:51:08.589Z,74.50
2017-09-14T15:53:37.244Z,75.00
2017-09-14T15:56:05.112Z,75.00
2017-09-14T15:58:32.818Z,74.40
2017-09-14T16:01:01.324Z,74.50
2017-09-14T16:03:29.094Z,74.50
2017-09-14T16:05:56.805Z,74.40
2017-09-14T16:08:24.542Z,72.40
2017-09-14T16:10:52.275Z,69.50
2017-09-14T16:13:20.030Z,71.10
2017-09-14T16:15:47.786Z,72.50
2017-09-14T16:18:16.315Z,71.50
2017-09-14T16:20:44.959Z,71.40
2017-09-14T16:23:13.440Z,71.70
2017-09-14T16:25:41.946Z,72.00
2017-09-14T16:28:09.667Z,72.00
2017-09-14T16:30:37.383Z,73.20
2017-09-14T16:33:05.105Z,73.90
2017-09-14T16:35:33.582Z,75.30
2017-09-14T16:38:02.064Z,76.70
2017-09-14T16:40:30.544Z,76.00
2017-09-14T16:42:59.026Z,77.10
2017-09-14T16:45:27.509Z,77.20
2017-09-14T16:47:55.994Z,78.10
2017-09-14T16:50:24.474Z,78.10
2017-09-14T16:52:52.955Z,78.80
2017-09-14T16:55:21.439Z,76.10
2017-09-14T16:57:49.923Z,77.50
2017-09-14T17:00:18.437Z,75.40
2017-09-14T17:02:46.155Z,75.40
2017-09-14T17:05:13.870Z,75.80
2017-09-14T17:07:41.595Z,77.00
2017-09-14T17:10:10.087Z,80.10
2017-09-14T17:12:38.578Z,80.60
2017-09-14T17:15:06.302Z,80.60
2017-09-14T17:17:34.051Z,81.80
2017-09-14T17:20:01.765Z,82.80
2017-09-14T17:22:29.477Z,83.70
2017-09-14T17:24:57.193Z,85.50
2017-09-14T17:27:24.908Z,87.90
2017-09-14T17:29:52.637Z,88.20
2017-09-14T17:32:20.359Z,88.20
2017-09-14T17:34:48.102Z,89.70
2017-09-14T17:37:15.826Z,90.10
2017-09-14T17:39:43.568Z,90.40
2017-09-14T17:42:12.087Z,90.40
2017-09-14T17:44:39.865Z,90.40
2017-09-14T17:47:07.585Z,90.20
2017-09-14T17:49:36.074Z,90.10
2017-09-14T17:52:03.798Z,90.10
2017-09-14T17:54:31.526Z,89.40
2017-09-14T17:56:59.261Z,89.60
2017-09-14T17:59:26.982Z,90.00
2017-09-14T18:01:54.697Z,89.80
2017-09-14T18:04:22.414Z,89.40
2017-09-14T18:06:50.126Z,89.10
2017-09-14T18:09:17.846Z,89.30
2017-09-14T18:11:45.570Z,89.00
2017-09-14T18:14:13.318Z,90.00
2017-09-14T18:16:41.049Z,89.60
2017-09-14T18:19:08.759Z,89.60
2017-09-14T18:21:36.539Z,88.60
2017-09-14T18:24:04.281Z,87.90
2017-09-14T18:26:32.009Z,85.70
2017-09-14T18:28:59.772Z,86.40
2017-09-14T18:31:27.499Z,86.90
2017-09-14T18:33:55.236Z,85.80
2017-09-14T18:36:22.959Z,86.40
2017-09-14T18:38:50.674Z,87.20
2017-09-14T18:41:18.426Z,86.10
2017-09-14T18:43:46.157Z,86.80
2017-09-14T18:46:14.653Z,87.60
2017-09-14T18:48:43.154Z,87.50
2017-09-14T18:51:10.906Z,87.50
2017-09-14T18:53:38.670Z,87.50
2017-09-14T18:56:06.390Z,88.30
2017-09-14T18:58:34.114Z,89.00
2017-09-14T19:01:01.863Z,88.40
2017-09-14T19:03:30.443Z,88.20
2017-09-14T19:06:01.179Z,88.70
2017-09-14T19:08:29.498Z,88.60
2017-09-14T19:10:57.552Z,88.10
2017-09-14T19:13:25.378Z,89.20
2017-09-14T19:15:53.206Z,89.30
2017-09-14T19:18:20.925Z,90.10
2017-09-14T19:20:50.014Z,89.50
2017-09-14T19:23:18.538Z,89.50
2017-09-14T19:25:46.259Z,89.50
2017-09-14T19:28:14.742Z,90.60
2017-09-14T19:30:43.246Z,90.40
2017-09-14T19:33:10.968Z,90.40
2017-09-14T19:35:38.722Z,91.00
2017-09-14T19:38:06.442Z,91.20
2017-09-14T19:40:34.173Z,91.40
2017-09-14T19:43:02.666Z,92.00
2017-09-14T19:45:31.165Z,92.30
2017-09-14T19:47:58.896Z,92.20
2017-09-14T19:50:27.389Z,92.70
2017-09-14T19:52:55.870Z,92.50
2017-09-14T19:55:24.362Z,92.80
2017-09-14T19:57:52.866Z,92.70
2017-09-14T20:00:20.592Z,92.60
2017-09-14T20:02:48.316Z,92.70
2017-09-14T20:05:16.046Z,92.40
2017-09-14T20:07:43.772Z,92.50
2017-09-14T20:10:11.495Z,92.40
2017-09-14T20:12:39.222Z,92.20
2017-09-14T20:15:07.707Z,91.90
2017-09-14T20:17:36.244Z,91.80
2017-09-14T20:20:04.003Z,91.90
2017-09-14T20:22:31.733Z,91.90
2017-09-14T20:24:59.445Z,91.50
2017-09-14T20:27:27.166Z,91.80
2017-09-14T20:29:54.895Z,91.80
2017-09-14T20:32:22.621Z,91.50
2017-09-14T20:34:50.345Z,91.90
2017-09-14T20:37:18.837Z,91.70
2017-09-14T20:39:46.559Z,91.70
2017-09-14T20:42:14.281Z,91.30
2017-09-14T20:44:42.008Z,91.70
2017-09-14T20:47:10.495Z,91.40
2017-09-14T20:49:38.980Z,91.40
2017-09-14T20:52:07.465Z,91.20
2017-09-14T20:54:35.979Z,91.40
2017-09-14T20:57:03.702Z,91.30
2017-09-14T20:59:32.193Z,91.30
2017-09-14T21:01:59.919Z,91.30
2017-09-14T21:07:02.333Z,91.30
2017-09-14T21:09:30.821Z,91.20
2017-09-14T21:11:59.307Z,91.00
2017-09-14T21:14:27.810Z,91.50
2017-09-14T21:16:55.536Z,91.50
2017-09-14T21:19:23.257Z,91.20
2017-09-14T21:21:50.984Z,91.70
2017-09-14T21:24:18.767Z,91.50
2017-09-14T21:26:46.502Z,91.60
2017-09-14T21:29:14.986Z,91.70
2017-09-14T21:31:43.634Z,91.50
2017-09-14T21:34:13.735Z,91.50
2017-09-14T21:36:44.995Z,91.50
2017-09-14T21:39:16.884Z,91.60
2017-09-14T21:41:48.027Z,91.70
2017-09-14T21:44:21.685Z,91.70
2017-09-14T21:46:53.350Z,91.80
2017-09-14T21:49:24.073Z,91.90
2017-09-14T21:51:56.558Z,92.00
2017-09-14T21:54:29.033Z,92.00
2017-09-14T21:57:01.358Z,92.20
2017-09-14T21:59:34.400Z,92.10
2017-09-14T22:02:07.083Z,92.10
2017-09-14T22:04:40.361Z,92.10
2017-09-14T22:07:12.887Z,92.10
2017-09-14T22:09:43.605Z,92.00
2017-09-14T22:12:14.514Z,92.20
2017-09-14T22:14:45.191Z,92.00
2017-09-14T22:17:15.981Z,91.90
2017-09-14T22:19:45.660Z,92.20
2017-09-14T22:22:16.107Z,91.80
2017-09-14T22:24:47.843Z,91.80
2017-09-14T22:27:20.538Z,91.60
2017-09-14T22:29:52.999Z,91.60
2017-09-14T22:32:25.868Z,91.80
2017-09-14T22:34:58.244Z,91.70
2017-09-14T22:37:30.477Z,91.70
2017-09-14T22:40:02.380Z,91.60
2017-09-14T22:42:34.198Z,91.90
2017-09-14T22:45:05.683Z,91.60
2017-09-14T22:47:36.719Z,91.70
2017-09-14T22:50:07.673Z,92.00
2017-09-14T22:52:39.430Z,91.60
2017-09-14T22:55:11.555Z,91.70
2017-09-14T22:57:42.551Z,91.70
2017-09-14T23:00:14.651Z,91.90
2017-09-14T23:02:46.400Z,91.90
2017-09-14T23:05:18.704Z,92.00
2017-09-14T23:07:51.153Z,92.00
2017-09-14T23:10:23.545Z,92.00
2017-09-14T23:12:55.910Z,92.10
2017-09-14T23:15:28.243Z,92.10
2017-09-14T23:18:00.902Z,92.00
2017-09-14T23:20:33.371Z,92.00
2017-09-14T23:23:04.945Z,91.90
2017-09-14T23:25:37.249Z,92.00
2017-09-14T23:28:08.393Z,92.00
2017-09-14T23:30:38.872Z,92.00
2017-09-14T23:33:11.657Z,91.90
2017-09-14T23:35:44.560Z,91.80
2017-09-14T23:38:19.082Z,91.80
2017-09-14T23:40:52.904Z,91.90
2017-09-14T23:43:25.863Z,91.80
2017-09-14T23:45:59.076Z,91.80
2017-09-14T23:48:31.977Z,91.80
2017-09-14T23:51:04.863Z,91.70
2017-09-14T23:53:37.609Z,91.80
2017-09-14T23:56:10.940Z,91.70
2017-09-14T23:58:43.189Z,91.70
